sensor_id;sensor_type;location;lat;lon;timestamp;temperature;humidity
64843;DHT22;51310;52.198;5.422;2022-09-27T00:00:43;10.30;99.90
64843;DHT22;51310;52.198;5.422;2022-09-27T00:03:10;10.30;99.90
64843;DHT22;51310;52.198;5.422;2022-09-27T00:05:36;10.30;99.90
64843;DHT22;51310;52.198;5.422;2022-09-27T00:08:03;10.30;99.90
64843;DHT22;51310;52.198;5.422;2022-09-27T00:10:30;10.30;99.90
64843;DHT22;51310;52.198;5.422;2022-09-27T00:12:57;10.30;99.90
64843;DHT22;51310;52.198;5.422;2022-09-27T00:15:23;10.30;99.90
64843;DHT22;51310;52.198;5.422;2022-09-27T00:17:49;10.30;99.90
64843;DHT22;51310;52.198;5.422;2022-09-27T00:20:19;10.30;99.90
64843;DHT22;51310;52.198;5.422;2022-09-27T00:22:46;10.30;99.90
64843;DHT22;51310;52.198;5.422;2022-09-27T00:25:14;10.30;99.90
64843;DHT22;51310;52.198;5.422;2022-09-27T00:27:41;10.30;99.90
64843;DHT22;51310;52.198;5.422;2022-09-27T00:30:07;10.30;99.90
64843;DHT22;51310;52.198;5.422;2022-09-27T00:32:34;11.70;99.90
64843;DHT22;51310;52.198;5.422;2022-09-27T00:35:01;10.30;99.90
64843;DHT22;51310;52.198;5.422;2022-09-27T00:37:27;10.20;99.90
64843;DHT22;51310;52.198;5.422;2022-09-27T00:39:53;10.20;99.90
64843;DHT22;51310;52.198;5.422;2022-09-27T00:42:18;10.10;99.90
64843;DHT22;51310;52.198;5.422;2022-09-27T00:44:53;10.10;99.90
64843;DHT22;51310;52.198;5.422;2022-09-27T00:47:54;10.10;99.90
64843;DHT22;51310;52.198;5.422;2022-09-27T00:50:31;10.10;99.90
64843;DHT22;51310;52.198;5.422;2022-09-27T00:53:16;10.10;99.90
64843;DHT22;51310;52.198;5.422;2022-09-27T00:55:59;10.10;99.90
64843;DHT22;51310;52.198;5.422;2022-09-27T00:58:32;10.00;99.90
64843;DHT22;51310;52.198;5.422;2022-09-27T01:01:05;9.90;99.90
64843;DHT22;51310;52.198;5.422;2022-09-27T01:03:58;10.00;99.90
64843;DHT22;51310;52.198;5.422;2022-09-27T01:06:30;10.00;99.90
64843;DHT22;51310;52.198;5.422;2022-09-27T01:08:56;9.90;99.90
64843;DHT22;51310;52.198;5.422;2022-09-27T01:11:44;9.90;99.90
64843;DHT22;51310;52.198;5.422;2022-09-27T01:29:39;9.80;99.90
64843;DHT22;51310;52.198;5.422;2022-09-27T01:32:40;9.60;99.90
64843;DHT22;51310;52.198;5.422;2022-09-27T01:35:23;9.60;99.90
64843;DHT22;51310;52.198;5.422;2022-09-27T01:38:37;9.50;99.90
64843;DHT22;51310;52.198;5.422;2022-09-27T01:41:49;9.50;99.90
64843;DHT22;51310;52.198;5.422;2022-09-27T01:44:55;9.40;99.90
64843;DHT22;51310;52.198;5.422;2022-09-27T01:47:56;9.30;99.90
64843;DHT22;51310;52.198;5.422;2022-09-27T01:50:31;9.40;99.90
64843;DHT22;51310;52.198;5.422;2022-09-27T01:53:11;9.30;99.90
64843;DHT22;51310;52.198;5.422;2022-09-27T01:55:52;9.30;99.90
64843;DHT22;51310;52.198;5.422;2022-09-27T01:58:44;9.20;99.90
64843;DHT22;51310;52.198;5.422;2022-09-27T02:01:33;9.20;99.90
64843;DHT22;51310;52.198;5.422;2022-09-27T02:04:02;9.10;99.90
64843;DHT22;51310;52.198;5.422;2022-09-27T02:06:37;9.10;99.90
64843;DHT22;51310;52.198;5.422;2022-09-27T02:09:16;9.00;99.90
64843;DHT22;51310;52.198;5.422;2022-09-27T02:11:53;9.00;99.90
64843;DHT22;51310;52.198;5.422;2022-09-27T02:14:32;9.20;99.90
64843;DHT22;51310;52.198;5.422;2022-09-27T02:17:37;9.10;99.90
64843;DHT22;51310;52.198;5.422;2022-09-27T02:20:28;9.10;99.90
64843;DHT22;51310;52.198;5.422;2022-09-27T02:23:35;8.90;99.90
64843;DHT22;51310;52.198;5.422;2022-09-27T02:26:31;9.00;99.90
64843;DHT22;51310;52.198;5.422;2022-09-27T02:29:13;9.20;99.90
64843;DHT22;51310;52.198;5.422;2022-09-27T02:31:46;9.70;99.90
64843;DHT22;51310;52.198;5.422;2022-09-27T02:34:21;9.10;99.90
64843;DHT22;51310;52.198;5.422;2022-09-27T02:36:50;9.00;99.90
64843;DHT22;51310;52.198;5.422;2022-09-27T02:39:18;8.90;99.90
64843;DHT22;51310;52.198;5.422;2022-09-27T02:41:44;8.90;99.90
64843;DHT22;51310;52.198;5.422;2022-09-27T02:44:12;8.90;99.90
64843;DHT22;51310;52.198;5.422;2022-09-27T02:50:09;9.00;99.90
64843;DHT22;51310;52.198;5.422;2022-09-27T02:56:15;9.00;99.90
64843;DHT22;51310;52.198;5.422;2022-09-27T03:05:09;8.90;99.90
64843;DHT22;51310;52.198;5.422;2022-09-27T03:07:42;9.10;99.90
64843;DHT22;51310;52.198;5.422;2022-09-27T03:10:16;8.90;99.90
64843;DHT22;51310;52.198;5.422;2022-09-27T03:12:46;8.90;99.90
64843;DHT22;51310;52.198;5.422;2022-09-27T03:15:12;10.90;99.90
64843;DHT22;51310;52.198;5.422;2022-09-27T03:17:38;9.00;99.90
64843;DHT22;51310;52.198;5.422;2022-09-27T03:20:05;9.00;99.90
64843;DHT22;51310;52.198;5.422;2022-09-27T03:22:31;8.90;99.90
64843;DHT22;51310;52.198;5.422;2022-09-27T03:24:57;8.90;99.90
64843;DHT22;51310;52.198;5.422;2022-09-27T03:27:23;8.80;99.90
64843;DHT22;51310;52.198;5.422;2022-09-27T03:29:49;8.80;99.90
64843;DHT22;51310;52.198;5.422;2022-09-27T03:32:15;8.70;99.90
64843;DHT22;51310;52.198;5.422;2022-09-27T03:34:41;8.70;99.90
64843;DHT22;51310;52.198;5.422;2022-09-27T03:37:07;8.80;99.90
64843;DHT22;51310;52.198;5.422;2022-09-27T03:39:33;8.70;99.90
64843;DHT22;51310;52.198;5.422;2022-09-27T03:41:59;10.20;99.90
64843;DHT22;51310;52.198;5.422;2022-09-27T03:44:25;8.70;99.90
64843;DHT22;51310;52.198;5.422;2022-09-27T03:46:51;8.70;99.90
64843;DHT22;51310;52.198;5.422;2022-09-27T03:49:17;8.80;99.90
64843;DHT22;51310;52.198;5.422;2022-09-27T03:51:43;8.70;99.90
64843;DHT22;51310;52.198;5.422;2022-09-27T03:54:09;8.70;99.90
64843;DHT22;51310;52.198;5.422;2022-09-27T03:59:01;8.90;99.90
64843;DHT22;51310;52.198;5.422;2022-09-27T04:01:27;8.80;99.90
64843;DHT22;51310;52.198;5.422;2022-09-27T04:03:54;8.80;99.90
64843;DHT22;51310;52.198;5.422;2022-09-27T04:06:19;8.80;99.90
64843;DHT22;51310;52.198;5.422;2022-09-27T04:08:47;8.80;99.90
64843;DHT22;51310;52.198;5.422;2022-09-27T04:11:14;8.90;99.90
64843;DHT22;51310;52.198;5.422;2022-09-27T04:13:40;8.90;99.90
64843;DHT22;51310;52.198;5.422;2022-09-27T04:16:06;8.90;99.90
64843;DHT22;51310;52.198;5.422;2022-09-27T04:18:32;8.70;99.90
64843;DHT22;51310;52.198;5.422;2022-09-27T04:20:58;8.70;99.90
64843;DHT22;51310;52.198;5.422;2022-09-27T04:23:24;8.80;99.90
64843;DHT22;51310;52.198;5.422;2022-09-27T04:25:50;8.80;99.90
64843;DHT22;51310;52.198;5.422;2022-09-27T04:28:16;8.70;99.90
64843;DHT22;51310;52.198;5.422;2022-09-27T04:30:42;8.80;99.90
64843;DHT22;51310;52.198;5.422;2022-09-27T04:33:07;8.80;99.90
64843;DHT22;51310;52.198;5.422;2022-09-27T04:35:33;8.70;99.90
64843;DHT22;51310;52.198;5.422;2022-09-27T04:38:18;8.70;99.90
64843;DHT22;51310;52.198;5.422;2022-09-27T04:40:46;8.60;99.90
64843;DHT22;51310;52.198;5.422;2022-09-27T04:43:13;9.20;99.90
64843;DHT22;51310;52.198;5.422;2022-09-27T04:45:39;8.50;99.90
64843;DHT22;51310;52.198;5.422;2022-09-27T04:48:05;8.60;99.90
64843;DHT22;51310;52.198;5.422;2022-09-27T04:50:30;8.60;99.90
64843;DHT22;51310;52.198;5.422;2022-09-27T04:52:57;8.60;99.90
64843;DHT22;51310;52.198;5.422;2022-09-27T04:55:22;8.60;99.90
64843;DHT22;51310;52.198;5.422;2022-09-27T04:57:49;8.70;99.90
64843;DHT22;51310;52.198;5.422;2022-09-27T05:00:15;8.70;99.90
64843;DHT22;51310;52.198;5.422;2022-09-27T05:02:43;8.60;99.90
64843;DHT22;51310;52.198;5.422;2022-09-27T05:05:09;8.60;99.90
64843;DHT22;51310;52.198;5.422;2022-09-27T05:07:37;8.60;99.90
64843;DHT22;51310;52.198;5.422;2022-09-27T05:10:04;8.60;99.90
64843;DHT22;51310;52.198;5.422;2022-09-27T05:12:31;8.70;99.90
64843;DHT22;51310;52.198;5.422;2022-09-27T05:14:57;8.60;99.90
64843;DHT22;51310;52.198;5.422;2022-09-27T05:17:24;8.50;99.90
64843;DHT22;51310;52.198;5.422;2022-09-27T05:19:50;8.70;99.90
64843;DHT22;51310;52.198;5.422;2022-09-27T05:22:16;8.70;99.90
64843;DHT22;51310;52.198;5.422;2022-09-27T05:24:42;8.50;99.90
64843;DHT22;51310;52.198;5.422;2022-09-27T05:27:12;8.60;99.90
64843;DHT22;51310;52.198;5.422;2022-09-27T05:29:41;8.50;99.90
64843;DHT22;51310;52.198;5.422;2022-09-27T05:32:06;8.50;99.90
64843;DHT22;51310;52.198;5.422;2022-09-27T05:34:32;8.50;99.90
64843;DHT22;51310;52.198;5.422;2022-09-27T05:36:58;8.50;99.90
64843;DHT22;51310;52.198;5.422;2022-09-27T05:39:24;8.50;99.90
64843;DHT22;51310;52.198;5.422;2022-09-27T05:41:50;8.60;99.90
64843;DHT22;51310;52.198;5.422;2022-09-27T05:44:16;8.70;99.90
64843;DHT22;51310;52.198;5.422;2022-09-27T05:46:42;8.70;99.90
64843;DHT22;51310;52.198;5.422;2022-09-27T05:49:08;8.70;99.90
64843;DHT22;51310;52.198;5.422;2022-09-27T05:51:34;8.70;99.90
64843;DHT22;51310;52.198;5.422;2022-09-27T05:54:00;8.70;99.90
64843;DHT22;51310;52.198;5.422;2022-09-27T05:56:27;8.80;99.90
64843;DHT22;51310;52.198;5.422;2022-09-27T05:58:52;8.80;99.90
64843;DHT22;51310;52.198;5.422;2022-09-27T06:01:18;8.80;99.90
64843;DHT22;51310;52.198;5.422;2022-09-27T06:03:44;8.80;99.90
64843;DHT22;51310;52.198;5.422;2022-09-27T06:06:12;8.80;99.90
64843;DHT22;51310;52.198;5.422;2022-09-27T06:08:39;8.80;99.90
64843;DHT22;51310;52.198;5.422;2022-09-27T06:11:11;8.90;99.90
64843;DHT22;51310;52.198;5.422;2022-09-27T06:13:38;9.00;99.90
64843;DHT22;51310;52.198;5.422;2022-09-27T06:16:05;9.10;99.90
64843;DHT22;51310;52.198;5.422;2022-09-27T06:18:35;9.20;99.90
64843;DHT22;51310;52.198;5.422;2022-09-27T06:21:02;9.20;99.90
64843;DHT22;51310;52.198;5.422;2022-09-27T06:23:30;9.30;99.90
64843;DHT22;51310;52.198;5.422;2022-09-27T06:26:00;9.20;99.90
64843;DHT22;51310;52.198;5.422;2022-09-27T06:28:30;8.80;99.90
64843;DHT22;51310;52.198;5.422;2022-09-27T06:30:57;9.20;99.90
64843;DHT22;51310;52.198;5.422;2022-09-27T06:33:25;9.30;99.90
64843;DHT22;51310;52.198;5.422;2022-09-27T06:35:54;9.20;99.90
64843;DHT22;51310;52.198;5.422;2022-09-27T06:38:21;9.30;99.90
64843;DHT22;51310;52.198;5.422;2022-09-27T06:40:47;9.30;99.90
64843;DHT22;51310;52.198;5.422;2022-09-27T06:43:15;9.30;99.90
64843;DHT22;51310;52.198;5.422;2022-09-27T06:45:44;9.30;99.90
64843;DHT22;51310;52.198;5.422;2022-09-27T06:48:12;9.30;99.90
64843;DHT22;51310;52.198;5.422;2022-09-27T06:50:41;9.30;99.90
64843;DHT22;51310;52.198;5.422;2022-09-27T06:53:10;9.50;99.90
64843;DHT22;51310;52.198;5.422;2022-09-27T06:55:39;12.20;99.90
64843;DHT22;51310;52.198;5.422;2022-09-27T06:58:06;9.40;99.90
64843;DHT22;51310;52.198;5.422;2022-09-27T07:00:53;9.50;99.90
64843;DHT22;51310;52.198;5.422;2022-09-27T07:03:20;9.50;99.90
64843;DHT22;51310;52.198;5.422;2022-09-27T07:05:55;9.50;99.90
64843;DHT22;51310;52.198;5.422;2022-09-27T07:08:29;9.50;99.90
64843;DHT22;51310;52.198;5.422;2022-09-27T07:11:01;9.50;99.90
64843;DHT22;51310;52.198;5.422;2022-09-27T07:13:29;10.70;99.90
64843;DHT22;51310;52.198;5.422;2022-09-27T07:15:57;9.50;99.90
64843;DHT22;51310;52.198;5.422;2022-09-27T07:18:23;9.60;99.90
64843;DHT22;51310;52.198;5.422;2022-09-27T07:20:49;9.50;99.90
64843;DHT22;51310;52.198;5.422;2022-09-27T07:23:15;9.50;99.90
64843;DHT22;51310;52.198;5.422;2022-09-27T07:25:42;9.60;99.90
64843;DHT22;51310;52.198;5.422;2022-09-27T07:28:14;9.60;99.90
64843;DHT22;51310;52.198;5.422;2022-09-27T07:30:43;9.70;99.90
64843;DHT22;51310;52.198;5.422;2022-09-27T07:33:10;9.80;99.90
64843;DHT22;51310;52.198;5.422;2022-09-27T07:35:41;9.90;99.90
64843;DHT22;51310;52.198;5.422;2022-09-27T07:38:09;9.90;99.90
64843;DHT22;51310;52.198;5.422;2022-09-27T07:40:39;9.90;99.90
64843;DHT22;51310;52.198;5.422;2022-09-27T07:43:05;9.90;99.90
64843;DHT22;51310;52.198;5.422;2022-09-27T07:45:36;9.90;99.90
64843;DHT22;51310;52.198;5.422;2022-09-27T07:48:06;9.90;99.90
64843;DHT22;51310;52.198;5.422;2022-09-27T07:50:34;9.80;99.90
64843;DHT22;51310;52.198;5.422;2022-09-27T07:53:02;9.80;99.90
64843;DHT22;51310;52.198;5.422;2022-09-27T07:55:29;9.80;99.90
64843;DHT22;51310;52.198;5.422;2022-09-27T07:58:04;9.90;99.90
64843;DHT22;51310;52.198;5.422;2022-09-27T08:00:33;9.90;99.90
64843;DHT22;51310;52.198;5.422;2022-09-27T08:03:10;9.90;99.90
64843;DHT22;51310;52.198;5.422;2022-09-27T08:05:41;9.90;99.90
64843;DHT22;51310;52.198;5.422;2022-09-27T08:08:09;9.90;99.90
64843;DHT22;51310;52.198;5.422;2022-09-27T08:10:34;9.90;99.90
64843;DHT22;51310;52.198;5.422;2022-09-27T08:13:01;9.90;99.90
64843;DHT22;51310;52.198;5.422;2022-09-27T08:15:33;10.00;99.90
64843;DHT22;51310;52.198;5.422;2022-09-27T08:18:04;10.10;99.90
64843;DHT22;51310;52.198;5.422;2022-09-27T08:20:31;10.20;99.90
64843;DHT22;51310;52.198;5.422;2022-09-27T08:22:57;10.20;99.90
64843;DHT22;51310;52.198;5.422;2022-09-27T08:25:23;10.30;99.90
64843;DHT22;51310;52.198;5.422;2022-09-27T08:27:57;10.40;99.90
64843;DHT22;51310;52.198;5.422;2022-09-27T08:30:25;10.40;99.90
64843;DHT22;51310;52.198;5.422;2022-09-27T08:32:56;10.70;99.90
64843;DHT22;51310;52.198;5.422;2022-09-27T08:35:23;10.60;99.90
64843;DHT22;51310;52.198;5.422;2022-09-27T08:37:57;10.70;99.90
64843;DHT22;51310;52.198;5.422;2022-09-27T08:46:44;10.70;99.90
64843;DHT22;51310;52.198;5.422;2022-09-27T08:49:53;10.50;99.90
64843;DHT22;51310;52.198;5.422;2022-09-27T08:52:52;10.50;99.90
64843;DHT22;51310;52.198;5.422;2022-09-27T08:55:35;10.50;99.90
64843;DHT22;51310;52.198;5.422;2022-09-27T08:58:14;10.50;99.90
64843;DHT22;51310;52.198;5.422;2022-09-27T09:00:53;10.50;99.90
64843;DHT22;51310;52.198;5.422;2022-09-27T09:03:27;10.50;99.90
64843;DHT22;51310;52.198;5.422;2022-09-27T09:06:16;10.50;99.90
64843;DHT22;51310;52.198;5.422;2022-09-27T09:12:05;10.40;99.90
64843;DHT22;51310;52.198;5.422;2022-09-27T09:25:14;10.40;99.90
64843;DHT22;51310;52.198;5.422;2022-09-27T09:34:17;10.50;99.90
64843;DHT22;51310;52.198;5.422;2022-09-27T09:37:01;10.50;99.90
64843;DHT22;51310;52.198;5.422;2022-09-27T09:39:50;10.50;99.90
64843;DHT22;51310;52.198;5.422;2022-09-27T09:42:36;10.40;99.90
64843;DHT22;51310;52.198;5.422;2022-09-27T09:45:29;10.40;99.90
64843;DHT22;51310;52.198;5.422;2022-09-27T09:48:03;10.40;99.90
64843;DHT22;51310;52.198;5.422;2022-09-27T09:50:58;10.50;99.90
64843;DHT22;51310;52.198;5.422;2022-09-27T09:53:56;10.40;99.90
64843;DHT22;51310;52.198;5.422;2022-09-27T09:56:39;10.40;99.90
64843;DHT22;51310;52.198;5.422;2022-09-27T10:00:05;10.40;99.90
64843;DHT22;51310;52.198;5.422;2022-09-27T10:02:30;10.40;99.90
64843;DHT22;51310;52.198;5.422;2022-09-27T10:04:59;10.50;99.90
64843;DHT22;51310;52.198;5.422;2022-09-27T10:07:26;10.50;99.90
64843;DHT22;51310;52.198;5.422;2022-09-27T10:09:56;10.70;99.90
64843;DHT22;51310;52.198;5.422;2022-09-27T10:12:25;10.60;99.90
64843;DHT22;51310;52.198;5.422;2022-09-27T10:14:53;10.60;99.90
64843;DHT22;51310;52.198;5.422;2022-09-27T10:17:26;10.60;99.90
64843;DHT22;51310;52.198;5.422;2022-09-27T10:20:01;10.60;99.90
64843;DHT22;51310;52.198;5.422;2022-09-27T10:22:36;10.60;99.90
64843;DHT22;51310;52.198;5.422;2022-09-27T10:25:08;10.60;99.90
64843;DHT22;51310;52.198;5.422;2022-09-27T10:27:41;10.70;99.90
64843;DHT22;51310;52.198;5.422;2022-09-27T10:32:52;10.80;99.90
64843;DHT22;51310;52.198;5.422;2022-09-27T10:38:24;10.70;99.90
64843;DHT22;51310;52.198;5.422;2022-09-27T10:43:53;10.60;99.90
64843;DHT22;51310;52.198;5.422;2022-09-27T10:46:27;10.60;99.90
64843;DHT22;51310;52.198;5.422;2022-09-27T10:49:08;10.60;99.90
64843;DHT22;51310;52.198;5.422;2022-09-27T10:51:49;10.60;99.90
64843;DHT22;51310;52.198;5.422;2022-09-27T10:54:21;10.50;99.90
64843;DHT22;51310;52.198;5.422;2022-09-27T10:57:02;10.60;99.90
64843;DHT22;51310;52.198;5.422;2022-09-27T10:59:46;10.70;99.90
64843;DHT22;51310;52.198;5.422;2022-09-27T11:02:32;10.70;99.90
64843;DHT22;51310;52.198;5.422;2022-09-27T11:07:36;10.70;99.90
64843;DHT22;51310;52.198;5.422;2022-09-27T11:10:20;10.70;99.90
64843;DHT22;51310;52.198;5.422;2022-09-27T11:13:17;10.70;99.90
64843;DHT22;51310;52.198;5.422;2022-09-27T11:27:49;10.50;99.90
64843;DHT22;51310;52.198;5.422;2022-09-27T11:36:42;10.40;99.90
64843;DHT22;51310;52.198;5.422;2022-09-27T11:42:52;10.30;99.90
64843;DHT22;51310;52.198;5.422;2022-09-27T11:48:49;10.40;99.90
64843;DHT22;51310;52.198;5.422;2022-09-27T11:57:39;10.50;99.90
64843;DHT22;51310;52.198;5.422;2022-09-27T12:04:03;10.60;99.90
64843;DHT22;51310;52.198;5.422;2022-09-27T12:07:07;10.60;99.90
64843;DHT22;51310;52.198;5.422;2022-09-27T12:09:56;10.60;99.90
64843;DHT22;51310;52.198;5.422;2022-09-27T12:12:31;10.70;99.90
64843;DHT22;51310;52.198;5.422;2022-09-27T12:15:14;10.90;99.90
64843;DHT22;51310;52.198;5.422;2022-09-27T12:18:30;10.90;99.90
64843;DHT22;51310;52.198;5.422;2022-09-27T12:21:05;10.60;99.90
64843;DHT22;51310;52.198;5.422;2022-09-27T12:26:23;10.40;99.90
64843;DHT22;51310;52.198;5.422;2022-09-27T12:29:00;10.40;99.90
64843;DHT22;51310;52.198;5.422;2022-09-27T12:31:41;10.40;99.90
64843;DHT22;51310;52.198;5.422;2022-09-27T12:34:43;10.30;99.90
64843;DHT22;51310;52.198;5.422;2022-09-27T12:37:33;10.20;99.90
64843;DHT22;51310;52.198;5.422;2022-09-27T12:42:50;10.00;99.90
64843;DHT22;51310;52.198;5.422;2022-09-27T12:51:08;9.70;99.90
64843;DHT22;51310;52.198;5.422;2022-09-27T12:53:45;9.70;99.90
64843;DHT22;51310;52.198;5.422;2022-09-27T13:03:24;9.70;99.90
64843;DHT22;51310;52.198;5.422;2022-09-27T13:06:21;9.60;99.90
64843;DHT22;51310;52.198;5.422;2022-09-27T13:14:37;9.90;99.90
64843;DHT22;51310;52.198;5.422;2022-09-27T13:17:34;9.90;99.90
64843;DHT22;51310;52.198;5.422;2022-09-27T13:23:04;10.00;99.90
64843;DHT22;51310;52.198;5.422;2022-09-27T13:25:59;9.90;99.90
64843;DHT22;51310;52.198;5.422;2022-09-27T13:30:59;9.90;99.90
64843;DHT22;51310;52.198;5.422;2022-09-27T13:47:26;10.30;99.90
64843;DHT22;51310;52.198;5.422;2022-09-27T14:02:20;11.10;99.90
64843;DHT22;51310;52.198;5.422;2022-09-27T14:04:52;11.20;99.90
64843;DHT22;51310;52.198;5.422;2022-09-27T14:07:25;13.70;99.90
64843;DHT22;51310;52.198;5.422;2022-09-27T14:09:59;11.30;99.90
64843;DHT22;51310;52.198;5.422;2022-09-27T14:12:38;11.50;99.90
64843;DHT22;51310;52.198;5.422;2022-09-27T14:15:08;11.50;99.90
64843;DHT22;51310;52.198;5.422;2022-09-27T14:17:45;11.30;99.90
64843;DHT22;51310;52.198;5.422;2022-09-27T14:20:35;11.50;99.90
64843;DHT22;51310;52.198;5.422;2022-09-27T14:23:22;11.40;99.90
64843;DHT22;51310;52.198;5.422;2022-09-27T14:25:53;11.40;99.90
64843;DHT22;51310;52.198;5.422;2022-09-27T14:28:29;11.10;99.90
64843;DHT22;51310;52.198;5.422;2022-09-27T14:33:43;11.10;99.90
64843;DHT22;51310;52.198;5.422;2022-09-27T14:36:33;11.30;99.90
64843;DHT22;51310;52.198;5.422;2022-09-27T14:39:27;11.20;99.90
64843;DHT22;51310;52.198;5.422;2022-09-27T14:41:57;11.20;99.90
64843;DHT22;51310;52.198;5.422;2022-09-27T14:44:25;11.20;99.90
64843;DHT22;51310;52.198;5.422;2022-09-27T14:49:59;11.30;99.90
64843;DHT22;51310;52.198;5.422;2022-09-27T14:52:39;11.20;99.90
64843;DHT22;51310;52.198;5.422;2022-09-27T14:55:08;11.40;99.90
64843;DHT22;51310;52.198;5.422;2022-09-27T14:57:46;11.40;99.90
64843;DHT22;51310;52.198;5.422;2022-09-27T15:02:52;10.80;99.90
64843;DHT22;51310;52.198;5.422;2022-09-27T15:05:26;10.70;99.90
64843;DHT22;51310;52.198;5.422;2022-09-27T15:07:55;10.80;99.90
64843;DHT22;51310;52.198;5.422;2022-09-27T15:10:25;10.80;99.90
64843;DHT22;51310;52.198;5.422;2022-09-27T15:12:58;10.70;99.90
64843;DHT22;51310;52.198;5.422;2022-09-27T15:15:33;10.70;99.90
64843;DHT22;51310;52.198;5.422;2022-09-27T15:18:22;10.80;99.90
64843;DHT22;51310;52.198;5.422;2022-09-27T15:20:58;10.70;99.90
64843;DHT22;51310;52.198;5.422;2022-09-27T15:23:33;10.80;99.90
64843;DHT22;51310;52.198;5.422;2022-09-27T15:26:26;10.80;99.90
64843;DHT22;51310;52.198;5.422;2022-09-27T15:29:22;10.80;99.90
64843;DHT22;51310;52.198;5.422;2022-09-27T15:32:04;10.70;99.90
64843;DHT22;51310;52.198;5.422;2022-09-27T15:34:33;10.70;99.90
64843;DHT22;51310;52.198;5.422;2022-09-27T15:37:02;12.50;99.90
64843;DHT22;51310;52.198;5.422;2022-09-27T15:39:38;10.70;99.90
64843;DHT22;51310;52.198;5.422;2022-09-27T15:42:11;10.60;99.90
64843;DHT22;51310;52.198;5.422;2022-09-27T15:52:47;10.60;99.90
64843;DHT22;51310;52.198;5.422;2022-09-27T15:55:20;10.50;99.90
64843;DHT22;51310;52.198;5.422;2022-09-27T15:58:00;10.50;99.90
64843;DHT22;51310;52.198;5.422;2022-09-27T16:00:33;10.50;99.90
64843;DHT22;51310;52.198;5.422;2022-09-27T16:03:02;10.50;99.90
64843;DHT22;51310;52.198;5.422;2022-09-27T16:05:28;10.50;99.90
64843;DHT22;51310;52.198;5.422;2022-09-27T16:07:56;10.50;99.90
64843;DHT22;51310;52.198;5.422;2022-09-27T16:10:28;10.40;99.90
64843;DHT22;51310;52.198;5.422;2022-09-27T16:13:01;10.50;99.90
64843;DHT22;51310;52.198;5.422;2022-09-27T16:15:27;10.50;99.90
64843;DHT22;51310;52.198;5.422;2022-09-27T16:17:53;10.50;99.90
64843;DHT22;51310;52.198;5.422;2022-09-27T16:20:21;10.50;99.90
64843;DHT22;51310;52.198;5.422;2022-09-27T16:22:51;10.50;99.90
64843;DHT22;51310;52.198;5.422;2022-09-27T16:25:19;10.50;99.90
64843;DHT22;51310;52.198;5.422;2022-09-27T16:27:47;10.50;99.90
64843;DHT22;51310;52.198;5.422;2022-09-27T16:30:13;10.50;99.90
64843;DHT22;51310;52.198;5.422;2022-09-27T16:32:42;10.40;99.90
64843;DHT22;51310;52.198;5.422;2022-09-27T16:35:12;10.50;99.90
64843;DHT22;51310;52.198;5.422;2022-09-27T16:37:40;10.50;99.90
64843;DHT22;51310;52.198;5.422;2022-09-27T16:40:08;10.60;99.90
64843;DHT22;51310;52.198;5.422;2022-09-27T16:42:35;10.60;99.90
64843;DHT22;51310;52.198;5.422;2022-09-27T16:45:03;10.60;99.90
64843;DHT22;51310;52.198;5.422;2022-09-27T16:47:31;10.50;99.90
64843;DHT22;51310;52.198;5.422;2022-09-27T16:49:58;10.40;99.90
64843;DHT22;51310;52.198;5.422;2022-09-27T16:52:42;10.30;99.90
64843;DHT22;51310;52.198;5.422;2022-09-27T16:55:13;10.30;99.90
64843;DHT22;51310;52.198;5.422;2022-09-27T16:57:47;10.20;99.90
64843;DHT22;51310;52.198;5.422;2022-09-27T17:00:15;10.10;99.90
64843;DHT22;51310;52.198;5.422;2022-09-27T17:02:42;10.10;99.90
64843;DHT22;51310;52.198;5.422;2022-09-27T17:05:12;10.10;99.90
64843;DHT22;51310;52.198;5.422;2022-09-27T17:07:39;10.10;99.90
64843;DHT22;51310;52.198;5.422;2022-09-27T17:10:05;10.00;99.90
64843;DHT22;51310;52.198;5.422;2022-09-27T17:12:32;10.10;99.90
64843;DHT22;51310;52.198;5.422;2022-09-27T17:14:58;10.10;99.90
64843;DHT22;51310;52.198;5.422;2022-09-27T17:17:25;10.10;99.90
64843;DHT22;51310;52.198;5.422;2022-09-27T17:19:51;10.20;99.90
64843;DHT22;51310;52.198;5.422;2022-09-27T17:22:17;10.20;99.90
64843;DHT22;51310;52.198;5.422;2022-09-27T17:24:43;10.20;99.90
64843;DHT22;51310;52.198;5.422;2022-09-27T17:27:09;10.20;99.90
64843;DHT22;51310;52.198;5.422;2022-09-27T17:29:35;10.20;99.90
64843;DHT22;51310;52.198;5.422;2022-09-27T17:32:03;10.10;99.90
64843;DHT22;51310;52.198;5.422;2022-09-27T17:34:33;10.10;99.90
64843;DHT22;51310;52.198;5.422;2022-09-27T17:37:00;10.10;99.90
64843;DHT22;51310;52.198;5.422;2022-09-27T17:39:26;10.10;99.90
64843;DHT22;51310;52.198;5.422;2022-09-27T17:41:52;10.10;99.90
64843;DHT22;51310;52.198;5.422;2022-09-27T17:44:18;10.10;99.90
64843;DHT22;51310;52.198;5.422;2022-09-27T17:46:45;10.10;99.90
64843;DHT22;51310;52.198;5.422;2022-09-27T17:49:12;10.60;99.90
64843;DHT22;51310;52.198;5.422;2022-09-27T17:51:57;10.00;99.90
64843;DHT22;51310;52.198;5.422;2022-09-27T17:54:24;10.00;99.90
64843;DHT22;51310;52.198;5.422;2022-09-27T17:56:52;9.90;99.90
64843;DHT22;51310;52.198;5.422;2022-09-27T17:59:20;9.90;99.90
64843;DHT22;51310;52.198;5.422;2022-09-27T18:01:47;9.90;99.90
64843;DHT22;51310;52.198;5.422;2022-09-27T18:04:16;9.80;99.90
64843;DHT22;51310;52.198;5.422;2022-09-27T18:06:45;9.80;99.90
64843;DHT22;51310;52.198;5.422;2022-09-27T18:09:14;9.90;99.90
64843;DHT22;51310;52.198;5.422;2022-09-27T18:11:41;9.80;99.90
64843;DHT22;51310;52.198;5.422;2022-09-27T18:14:08;9.80;99.90
64843;DHT22;51310;52.198;5.422;2022-09-27T18:16:37;9.70;99.90
64843;DHT22;51310;52.198;5.422;2022-09-27T18:19:13;9.60;99.90
64843;DHT22;51310;52.198;5.422;2022-09-27T18:21:41;9.60;99.90
64843;DHT22;51310;52.198;5.422;2022-09-27T18:26:35;9.40;99.90
64843;DHT22;51310;52.198;5.422;2022-09-27T18:29:09;9.40;99.90
64843;DHT22;51310;52.198;5.422;2022-09-27T18:31:37;9.30;99.90
64843;DHT22;51310;52.198;5.422;2022-09-27T18:34:07;9.30;99.90
64843;DHT22;51310;52.198;5.422;2022-09-27T18:36:33;9.20;99.90
64843;DHT22;51310;52.198;5.422;2022-09-27T18:39:03;9.20;99.90
64843;DHT22;51310;52.198;5.422;2022-09-27T18:41:33;9.20;99.90
64843;DHT22;51310;52.198;5.422;2022-09-27T18:46:31;9.20;99.90
64843;DHT22;51310;52.198;5.422;2022-09-27T18:49:00;9.20;99.90
64843;DHT22;51310;52.198;5.422;2022-09-27T18:51:27;9.10;99.90
64843;DHT22;51310;52.198;5.422;2022-09-27T18:53:57;9.10;99.90
64843;DHT22;51310;52.198;5.422;2022-09-27T18:56:27;9.10;99.90
64843;DHT22;51310;52.198;5.422;2022-09-27T18:58:54;9.20;99.90
64843;DHT22;51310;52.198;5.422;2022-09-27T19:01:22;9.20;99.90
64843;DHT22;51310;52.198;5.422;2022-09-27T19:03:50;9.20;99.90
64843;DHT22;51310;52.198;5.422;2022-09-27T19:06:20;9.20;99.90
64843;DHT22;51310;52.198;5.422;2022-09-27T19:08:53;9.30;99.90
64843;DHT22;51310;52.198;5.422;2022-09-27T19:11:23;9.20;99.90
64843;DHT22;51310;52.198;5.422;2022-09-27T19:13:52;9.30;99.90